createdAt,value
2019-02-10T00:02:28.514Z,9.20
2019-02-10T00:07:31.473Z,8.27
2019-02-10T00:12:33.658Z,8.83
2019-02-10T00:17:35.953Z,8.37
2019-02-10T00:22:38.462Z,8.37
2019-02-10T00:27:40.703Z,6.60
2019-02-10T00:32:44.007Z,9.23
2019-02-10T00:37:47.167Z,7.13
2019-02-10T00:42:49.670Z,8.63
2019-02-10T00:47:51.901Z,7.77
2019-02-10T00:52:54.446Z,11.57
2019-02-10T00:57:56.784Z,10.87
2019-02-10T01:02:59.272Z,8.97
2019-02-10T01:08:01.531Z,7.77
2019-02-10T01:13:03.825Z,7.83
2019-02-10T01:18:06.088Z,7.30
2019-02-10T01:23:08.352Z,7.70
2019-02-10T01:28:11.416Z,9.13
2019-02-10T01:33:14.466Z,12.57
2019-02-10T01:38:17.784Z,6.90
2019-02-10T01:43:20.222Z,7.23
2019-02-10T01:48:22.794Z,10.53
2019-02-10T01:53:25.377Z,7.40
2019-02-10T01:58:27.927Z,5.40
2019-02-10T02:03:31.045Z,11.17
2019-02-10T02:08:33.295Z,9.77
2019-02-10T02:13:36.533Z,10.17
2019-02-10T02:18:39.101Z,5.77
2019-02-10T02:23:42.583Z,10.50
2019-02-10T02:28:45.400Z,5.67
2019-02-10T02:33:47.588Z,9.57
2019-02-10T02:38:51.254Z,9.83
2019-02-10T02:43:54.376Z,8.93
2019-02-10T02:48:57.481Z,9.40
2019-02-10T02:54:00.516Z,9.47
2019-02-10T02:59:03.472Z,10.77
2019-02-10T03:04:05.727Z,13.30
2019-02-10T03:09:08.052Z,13.40
2019-02-10T03:14:10.461Z,9.53
2019-02-10T03:19:12.700Z,7.53
2019-02-10T03:24:15.275Z,11.07
2019-02-10T03:29:17.542Z,9.03
2019-02-10T03:34:19.761Z,11.83
2019-02-10T03:39:22.583Z,11.67
2019-02-10T03:44:25.400Z,11.67
2019-02-10T03:49:27.701Z,9.90
2019-02-10T03:54:30.072Z,10.30
2019-02-10T03:59:33.594Z,7.93
2019-02-10T04:04:36.278Z,10.43
2019-02-10T04:09:38.503Z,7.33
2019-02-10T04:14:41.657Z,8.20
2019-02-10T04:19:44.457Z,10.13
2019-02-10T04:24:47.051Z,10.50
2019-02-10T04:29:50.450Z,8.70
2019-02-10T04:34:53.263Z,7.70
2019-02-10T04:39:56.578Z,10.07
2019-02-10T04:44:58.925Z,12.03
2019-02-10T04:50:01.235Z,12.40
2019-02-10T04:55:04.954Z,12.27
2019-02-10T05:00:08.084Z,7.93
2019-02-10T05:05:10.673Z,9.97
2019-02-10T05:10:12.930Z,8.87
2019-02-10T05:15:15.447Z,9.03
2019-02-10T05:20:17.696Z,8.90
2019-02-10T05:25:19.946Z,9.47
2019-02-10T05:30:22.514Z,9.33
2019-02-10T05:35:24.693Z,13.40
2019-02-10T05:40:26.904Z,8.70
2019-02-10T05:45:29.083Z,9.57
2019-02-10T05:50:31.537Z,8.03
2019-02-10T05:55:34.883Z,7.07
2019-02-10T06:00:38.287Z,10.30
2019-02-10T06:05:41.011Z,10.03
2019-02-10T06:10:43.564Z,8.20
2019-02-10T06:15:46.819Z,15.60
2019-02-10T06:20:49.370Z,10.97
2019-02-10T06:25:51.628Z,9.70
2019-02-10T06:30:54.762Z,8.70
2019-02-10T06:35:57.025Z,7.13
2019-02-10T06:41:00.087Z,8.97
2019-02-10T06:46:02.619Z,14.40
2019-02-10T06:51:04.832Z,6.17
2019-02-10T06:56:08.142Z,8.03
2019-02-10T07:01:27.654Z,11.53
2019-02-10T07:06:29.863Z,7.67
2019-02-10T07:11:32.048Z,12.13
2019-02-10T07:16:52.056Z,9.20
2019-02-10T07:21:54.255Z,10.80
2019-02-10T07:27:03.253Z,11.23
2019-02-10T07:32:21.698Z,10.20
2019-02-10T07:38:15.048Z,10.40
2019-02-10T07:43:48.828Z,11.77
2019-02-10T07:49:19.489Z,13.60
2019-02-10T07:55:23.105Z,12.73
2019-02-10T08:01:14.587Z,15.60
2019-02-10T08:07:11.249Z,15.07
2019-02-10T08:13:20.233Z,9.87
2019-02-10T08:19:01.109Z,11.60
2019-02-10T08:25:09.005Z,13.93
2019-02-10T08:31:08.743Z,15.70
2019-02-10T08:36:53.466Z,11.03
2019-02-10T08:42:07.774Z,13.30
2019-02-10T08:47:39.259Z,18.00
2019-02-10T08:53:02.870Z,14.87
2019-02-10T08:58:06.175Z,13.63
2019-02-10T09:03:08.379Z,14.53
2019-02-10T09:08:11.103Z,11.90
2019-02-10T09:13:13.875Z,11.73
2019-02-10T09:18:16.521Z,7.30
2019-02-10T09:23:19.390Z,18.23
2019-02-10T09:28:21.660Z,12.73
2019-02-10T09:33:24.305Z,12.13
2019-02-10T09:38:26.662Z,15.30
2019-02-10T09:43:28.855Z,15.00
2019-02-10T09:48:31.109Z,13.17
2019-02-10T09:53:33.358Z,14.73
2019-02-10T09:58:35.569Z,14.97
2019-02-10T10:03:38.755Z,13.07
2019-02-10T10:08:42.190Z,11.63
2019-02-10T10:13:45.104Z,11.40
2019-02-10T10:18:47.325Z,15.07
2019-02-10T10:23:50.086Z,14.27
2019-02-10T10:28:52.894Z,15.77
2019-02-10T10:33:56.177Z,15.97
2019-02-10T10:38:58.482Z,13.00
2019-02-10T10:44:02.306Z,19.77
2019-02-10T10:49:06.139Z,14.23
2019-02-10T10:54:09.321Z,17.93
2019-02-10T10:59:12.339Z,12.27
2019-02-10T11:04:14.607Z,13.37
2019-02-10T11:09:19.574Z,13.77
2019-02-10T11:14:21.999Z,12.77
2019-02-10T11:19:25.728Z,19.70
2019-02-10T11:24:29.048Z,11.97
2019-02-10T11:29:32.260Z,13.77
2019-02-10T11:34:35.329Z,10.27
2019-02-10T11:39:43.668Z,12.90
2019-02-10T11:44:42.605Z,14.47
2019-02-10T11:49:45.615Z,13.50
2019-02-10T11:54:48.863Z,11.83
2019-02-10T11:59:51.107Z,12.07
2019-02-10T12:04:54.182Z,11.40
2019-02-10T12:09:56.433Z,7.03
2019-02-10T12:14:59.523Z,6.73
2019-02-10T12:20:02.863Z,9.90
2019-02-10T12:25:05.695Z,8.70
2019-02-10T12:30:11.260Z,8.90
2019-02-10T12:35:14.032Z,8.00
2019-02-10T12:40:16.968Z,8.87
2019-02-10T12:45:19.739Z,9.53
2019-02-10T12:50:22.949Z,8.30
2019-02-10T12:55:27.247Z,9.00
2019-02-10T13:00:30.152Z,5.50
2019-02-10T13:05:32.414Z,6.43
2019-02-10T13:10:34.719Z,8.67
2019-02-10T13:15:37.752Z,6.90
2019-02-10T13:20:40.164Z,6.63
2019-02-10T13:25:42.486Z,7.20
2019-02-10T13:30:44.762Z,8.27
2019-02-10T13:35:47.025Z,7.87
2019-02-10T13:40:49.372Z,6.10
2019-02-10T13:45:52.099Z,7.20
2019-02-10T13:50:54.592Z,6.33
2019-02-10T13:55:57.542Z,5.17
2019-02-10T14:01:00.565Z,5.37
2019-02-10T14:06:03.055Z,8.23
2019-02-10T14:11:05.810Z,10.60
2019-02-10T14:16:09.074Z,7.10
2019-02-10T14:21:11.767Z,6.37
2019-02-10T14:26:14.329Z,7.97
2019-02-10T14:31:17.056Z,6.47
2019-02-10T14:36:19.344Z,6.67
2019-02-10T14:41:21.915Z,6.53
2019-02-10T14:46:24.161Z,7.23
2019-02-10T14:51:26.386Z,6.17
2019-02-10T14:56:29.381Z,7.57
2019-02-10T15:01:31.609Z,7.20
2019-02-10T15:06:34.194Z,5.47
2019-02-10T15:11:37.032Z,6.53
2019-02-10T15:16:39.975Z,5.93
2019-02-10T15:21:42.677Z,6.13
2019-02-10T15:26:45.578Z,8.17
2019-02-10T15:31:48.337Z,6.40
2019-02-10T15:36:51.150Z,6.17
2019-02-10T15:41:54.594Z,6.13
2019-02-10T15:46:57.186Z,6.03
2019-02-10T15:52:00.149Z,7.30
2019-02-10T15:57:03.020Z,7.47
2019-02-10T16:07:27.943Z,5.83
2019-02-10T16:12:30.405Z,10.20
2019-02-10T16:17:32.917Z,7.30
2019-02-10T16:22:35.529Z,5.67
2019-02-10T16:27:38.181Z,5.80
2019-02-10T16:32:49.324Z,4.83
2019-02-10T16:37:45.584Z,5.70
2019-02-10T16:42:48.633Z,4.77
2019-02-10T16:47:51.204Z,6.00
2019-02-10T16:52:54.227Z,5.23
2019-02-10T16:57:58.851Z,6.17
2019-02-10T17:03:01.540Z,6.77
2019-02-10T17:08:04.487Z,6.80
2019-02-10T17:13:07.796Z,6.70
2019-02-10T17:18:12.017Z,5.83
2019-02-10T17:23:14.950Z,5.33
2019-02-10T17:28:17.341Z,4.70
2019-02-10T17:33:19.654Z,3.70
2019-02-10T17:38:22.084Z,5.60
2019-02-10T17:43:28.177Z,5.17
2019-02-10T17:48:31.143Z,4.33
2019-02-10T17:53:33.699Z,3.10
2019-02-10T17:58:36.805Z,3.17
2019-02-10T18:03:42.259Z,3.47
2019-02-10T18:08:45.078Z,3.57
2019-02-10T18:13:47.625Z,6.00
2019-02-10T18:18:58.460Z,3.67
2019-02-10T18:24:26.175Z,3.63
2019-02-10T18:29:49.033Z,3.73
2019-02-10T18:34:58.542Z,3.23
2019-02-10T18:40:14.562Z,2.97
2019-02-10T18:45:23.367Z,4.20
2019-02-10T18:50:38.905Z,2.93
2019-02-10T18:56:10.197Z,3.77
2019-02-10T19:01:22.041Z,2.33
2019-02-10T19:06:50.194Z,2.13
2019-02-10T19:12:19.046Z,1.73
2019-02-10T19:17:27.716Z,2.00
2019-02-10T19:23:04.415Z,1.60
2019-02-10T19:28:18.904Z,2.23
2019-02-10T19:33:31.723Z,1.90
2019-02-10T19:38:45.310Z,2.83
2019-02-10T19:44:06.604Z,1.80
2019-02-10T19:49:31.794Z,2.73
2019-02-10T19:54:58.388Z,1.90
2019-02-10T20:00:19.071Z,1.90
2019-02-10T20:05:36.553Z,2.23
2019-02-10T20:10:57.377Z,1.83
2019-02-10T20:16:16.168Z,2.57
2019-02-10T20:21:37.162Z,4.13
2019-02-10T20:26:57.739Z,1.90
2019-02-10T20:32:19.536Z,3.30
2019-02-10T20:37:29.515Z,2.60
2019-02-10T20:42:41.693Z,6.70
2019-02-10T20:47:50.533Z,2.37
2019-02-10T20:53:12.597Z,2.40
2019-02-10T20:58:25.940Z,2.00
2019-02-10T21:03:38.981Z,2.57
2019-02-10T21:09:03.795Z,2.17
2019-02-10T21:14:19.583Z,3.20
2019-02-10T21:19:35.261Z,2.60
2019-02-10T21:24:51.519Z,3.13
2019-02-10T21:30:19.852Z,4.17
2019-02-10T21:35:47.349Z,1.63
2019-02-10T21:41:18.396Z,1.23
2019-02-10T21:46:34.666Z,1.50
2019-02-10T21:51:37.273Z,3.93
2019-02-10T21:56:40.123Z,1.63
2019-02-10T22:01:42.385Z,4.50
2019-02-10T22:06:44.663Z,1.70
2019-02-10T22:11:47.260Z,1.00
2019-02-10T22:16:50.003Z,0.90
2019-02-10T22:21:52.760Z,1.40
2019-02-10T22:26:55.477Z,2.00
2019-02-10T22:31:59.330Z,0.70
2019-02-10T22:37:03.262Z,1.03
2019-02-10T22:42:06.060Z,0.80
2019-02-10T22:47:08.598Z,0.50
2019-02-10T22:52:11.359Z,1.00
2019-02-10T22:57:13.808Z,1.03
2019-02-10T23:02:16.157Z,0.70
2019-02-10T23:07:19.099Z,0.63
2019-02-10T23:12:21.449Z,1.10
2019-02-10T23:17:24.397Z,1.00
2019-02-10T23:22:27.648Z,0.80
2019-02-10T23:27:30.974Z,0.50
2019-02-10T23:32:33.231Z,0.43
2019-02-10T23:37:35.513Z,1.57
2019-02-10T23:42:38.606Z,0.90
2019-02-10T23:47:40.873Z,0.93
2019-02-10T23:52:43.952Z,1.10
2019-02-10T23:57:46.342Z,1.23
